sensor_id;sensor_type;location;lat;lon;timestamp;P1;durP1;ratioP1;P2;durP2;ratioP2
12947;SDS011;6539;49.476;8.484;2023-05-09T00:00:52;13.20;;;11.47;;
12947;SDS011;6539;49.476;8.484;2023-05-09T00:03:20;12.50;;;11.20;;
12947;SDS011;6539;49.476;8.484;2023-05-09T00:05:48;12.43;;;11.13;;
12947;SDS011;6539;49.476;8.484;2023-05-09T00:08:14;13.43;;;12.03;;
12947;SDS011;6539;49.476;8.484;2023-05-09T00:10:41;12.83;;;11.43;;
12947;SDS011;6539;49.476;8.484;2023-05-09T00:13:09;12.37;;;11.17;;
12947;SDS011;6539;49.476;8.484;2023-05-09T00:15:34;12.63;;;11.33;;
12947;SDS011;6539;49.476;8.484;2023-05-09T00:18:00;13.63;;;12.17;;
12947;SDS011;6539;49.476;8.484;2023-05-09T00:20:29;12.60;;;11.40;;
12947;SDS011;6539;49.476;8.484;2023-05-09T00:22:57;12.63;;;11.17;;
12947;SDS011;6539;49.476;8.484;2023-05-09T00:25:23;15.03;;;11.87;;
12947;SDS011;6539;49.476;8.484;2023-05-09T00:27:51;12.97;;;11.67;;
12947;SDS011;6539;49.476;8.484;2023-05-09T00:30:17;12.97;;;11.67;;
12947;SDS011;6539;49.476;8.484;2023-05-09T00:32:43;14.63;;;11.73;;
12947;SDS011;6539;49.476;8.484;2023-05-09T00:35:09;13.37;;;11.87;;
12947;SDS011;6539;49.476;8.484;2023-05-09T00:37:37;14.63;;;11.57;;
12947;SDS011;6539;49.476;8.484;2023-05-09T00:40:05;12.97;;;11.00;;
12947;SDS011;6539;49.476;8.484;2023-05-09T00:42:34;15.83;;;11.60;;
12947;SDS011;6539;49.476;8.484;2023-05-09T00:45:01;15.03;;;12.23;;
12947;SDS011;6539;49.476;8.484;2023-05-09T00:47:27;13.77;;;12.10;;
12947;SDS011;6539;49.476;8.484;2023-05-09T00:49:56;12.87;;;11.47;;
12947;SDS011;6539;49.476;8.484;2023-05-09T00:52:24;13.13;;;11.57;;
12947;SDS011;6539;49.476;8.484;2023-05-09T00:54:54;12.70;;;11.40;;
12947;SDS011;6539;49.476;8.484;2023-05-09T00:57:21;12.67;;;11.47;;
12947;SDS011;6539;49.476;8.484;2023-05-09T00:59:47;12.73;;;10.77;;
12947;SDS011;6539;49.476;8.484;2023-05-09T01:02:14;16.33;;;13.53;;
12947;SDS011;6539;49.476;8.484;2023-05-09T01:04:44;15.47;;;11.63;;
12947;SDS011;6539;49.476;8.484;2023-05-09T01:12:44;12.57;;;11.27;;
12947;SDS011;6539;49.476;8.484;2023-05-09T01:18:32;14.33;;;11.70;;
12947;SDS011;6539;49.476;8.484;2023-05-09T01:21:27;12.80;;;11.40;;
12947;SDS011;6539;49.476;8.484;2023-05-09T01:24:05;14.27;;;11.70;;
12947;SDS011;6539;49.476;8.484;2023-05-09T01:30:12;12.60;;;11.40;;
12947;SDS011;6539;49.476;8.484;2023-05-09T01:32:41;14.13;;;11.23;;
12947;SDS011;6539;49.476;8.484;2023-05-09T01:35:17;12.93;;;11.63;;
12947;SDS011;6539;49.476;8.484;2023-05-09T01:37:48;13.30;;;11.67;;
12947;SDS011;6539;49.476;8.484;2023-05-09T01:40:15;16.50;;;11.40;;
12947;SDS011;6539;49.476;8.484;2023-05-09T01:42:51;18.07;;;12.63;;
12947;SDS011;6539;49.476;8.484;2023-05-09T01:45:31;13.90;;;12.40;;
12947;SDS011;6539;49.476;8.484;2023-05-09T01:47:58;13.57;;;12.17;;
12947;SDS011;6539;49.476;8.484;2023-05-09T01:50:28;14.67;;;11.90;;
12947;SDS011;6539;49.476;8.484;2023-05-09T01:52:57;14.63;;;12.07;;
12947;SDS011;6539;49.476;8.484;2023-05-09T01:55:26;14.43;;;12.33;;
12947;SDS011;6539;49.476;8.484;2023-05-09T01:57:58;17.43;;;12.67;;
12947;SDS011;6539;49.476;8.484;2023-05-09T02:00:25;14.23;;;12.30;;
12947;SDS011;6539;49.476;8.484;2023-05-09T02:02:57;14.87;;;13.27;;
12947;SDS011;6539;49.476;8.484;2023-05-09T02:05:27;13.73;;;12.30;;
12947;SDS011;6539;49.476;8.484;2023-05-09T02:07:58;13.80;;;12.40;;
12947;SDS011;6539;49.476;8.484;2023-05-09T02:10:27;13.73;;;12.33;;
12947;SDS011;6539;49.476;8.484;2023-05-09T02:12:54;13.47;;;12.07;;
12947;SDS011;6539;49.476;8.484;2023-05-09T02:15:21;13.47;;;11.87;;
12947;SDS011;6539;49.476;8.484;2023-05-09T02:17:47;14.90;;;12.13;;
12947;SDS011;6539;49.476;8.484;2023-05-09T02:20:18;14.80;;;12.90;;
12947;SDS011;6539;49.476;8.484;2023-05-09T02:22:46;13.40;;;12.00;;
12947;SDS011;6539;49.476;8.484;2023-05-09T02:25:12;14.57;;;13.17;;
12947;SDS011;6539;49.476;8.484;2023-05-09T02:27:39;16.07;;;13.00;;
12947;SDS011;6539;49.476;8.484;2023-05-09T02:30:10;13.97;;;12.57;;
12947;SDS011;6539;49.476;8.484;2023-05-09T02:32:49;18.37;;;13.10;;
12947;SDS011;6539;49.476;8.484;2023-05-09T02:35:28;14.30;;;12.80;;
12947;SDS011;6539;49.476;8.484;2023-05-09T02:37:56;14.73;;;13.17;;
12947;SDS011;6539;49.476;8.484;2023-05-09T02:40:25;14.97;;;13.43;;
12947;SDS011;6539;49.476;8.484;2023-05-09T02:42:53;15.73;;;13.00;;
12947;SDS011;6539;49.476;8.484;2023-05-09T02:45:22;17.83;;;14.30;;
12947;SDS011;6539;49.476;8.484;2023-05-09T02:47:48;16.03;;;14.33;;
12947;SDS011;6539;49.476;8.484;2023-05-09T02:50:16;16.70;;;14.93;;
12947;SDS011;6539;49.476;8.484;2023-05-09T02:52:45;16.80;;;14.40;;
12947;SDS011;6539;49.476;8.484;2023-05-09T02:55:11;15.83;;;14.20;;
12947;SDS011;6539;49.476;8.484;2023-05-09T02:57:39;17.03;;;14.57;;
12947;SDS011;6539;49.476;8.484;2023-05-09T03:00:05;16.57;;;14.87;;
12947;SDS011;6539;49.476;8.484;2023-05-09T03:02:35;18.37;;;15.23;;
12947;SDS011;6539;49.476;8.484;2023-05-09T03:05:04;17.40;;;15.57;;
12947;SDS011;6539;49.476;8.484;2023-05-09T03:07:30;15.97;;;14.30;;
12947;SDS011;6539;49.476;8.484;2023-05-09T03:09:59;17.87;;;15.30;;
12947;SDS011;6539;49.476;8.484;2023-05-09T03:12:31;16.20;;;14.37;;
12947;SDS011;6539;49.476;8.484;2023-05-09T03:14:57;17.20;;;14.93;;
12947;SDS011;6539;49.476;8.484;2023-05-09T03:17:25;20.50;;;15.87;;
12947;SDS011;6539;49.476;8.484;2023-05-09T03:19:51;16.43;;;14.70;;
12947;SDS011;6539;49.476;8.484;2023-05-09T03:22:19;20.23;;;16.07;;
12947;SDS011;6539;49.476;8.484;2023-05-09T03:24:47;17.60;;;14.47;;
12947;SDS011;6539;49.476;8.484;2023-05-09T03:27:15;18.27;;;15.70;;
12947;SDS011;6539;49.476;8.484;2023-05-09T03:29:41;16.77;;;15.00;;
12947;SDS011;6539;49.476;8.484;2023-05-09T03:32:07;16.60;;;14.80;;
12947;SDS011;6539;49.476;8.484;2023-05-09T03:34:33;16.50;;;14.80;;
12947;SDS011;6539;49.476;8.484;2023-05-09T03:37:01;17.90;;;16.00;;
12947;SDS011;6539;49.476;8.484;2023-05-09T03:39:27;17.73;;;15.00;;
12947;SDS011;6539;49.476;8.484;2023-05-09T03:41:52;18.07;;;15.57;;
12947;SDS011;6539;49.476;8.484;2023-05-09T03:44:18;17.83;;;15.93;;
12947;SDS011;6539;49.476;8.484;2023-05-09T03:46:46;19.10;;;15.27;;
12947;SDS011;6539;49.476;8.484;2023-05-09T03:49:12;16.70;;;15.03;;
12947;SDS011;6539;49.476;8.484;2023-05-09T03:51:38;17.97;;;15.50;;
12947;SDS011;6539;49.476;8.484;2023-05-09T03:54:04;15.57;;;14.03;;
12947;SDS011;6539;49.476;8.484;2023-05-09T03:56:29;17.23;;;14.87;;
12947;SDS011;6539;49.476;8.484;2023-05-09T03:58:58;18.43;;;16.30;;
12947;SDS011;6539;49.476;8.484;2023-05-09T04:01:24;20.37;;;15.70;;
12947;SDS011;6539;49.476;8.484;2023-05-09T04:03:51;17.93;;;15.97;;
12947;SDS011;6539;49.476;8.484;2023-05-09T04:06:17;19.00;;;15.50;;
12947;SDS011;6539;49.476;8.484;2023-05-09T04:08:43;17.53;;;15.60;;
12947;SDS011;6539;49.476;8.484;2023-05-09T04:11:09;18.50;;;15.10;;
12947;SDS011;6539;49.476;8.484;2023-05-09T04:13:37;17.20;;;15.03;;
12947;SDS011;6539;49.476;8.484;2023-05-09T04:16:05;17.97;;;16.07;;
12947;SDS011;6539;49.476;8.484;2023-05-09T04:18:34;17.27;;;15.03;;
12947;SDS011;6539;49.476;8.484;2023-05-09T04:21:02;22.10;;;16.50;;
12947;SDS011;6539;49.476;8.484;2023-05-09T04:23:30;17.40;;;15.53;;
12947;SDS011;6539;49.476;8.484;2023-05-09T04:25:56;18.03;;;15.80;;
12947;SDS011;6539;49.476;8.484;2023-05-09T04:28:24;21.07;;;17.13;;
12947;SDS011;6539;49.476;8.484;2023-05-09T04:30:50;21.20;;;15.87;;
12947;SDS011;6539;49.476;8.484;2023-05-09T04:33:18;20.30;;;16.07;;
12947;SDS011;6539;49.476;8.484;2023-05-09T04:35:48;22.40;;;15.17;;
12947;SDS011;6539;49.476;8.484;2023-05-09T04:38:15;21.83;;;16.77;;
12947;SDS011;6539;49.476;8.484;2023-05-09T04:40:40;22.67;;;17.57;;
12947;SDS011;6539;49.476;8.484;2023-05-09T04:43:09;21.60;;;16.80;;
12947;SDS011;6539;49.476;8.484;2023-05-09T04:45:35;23.37;;;17.97;;
12947;SDS011;6539;49.476;8.484;2023-05-09T04:48:01;21.20;;;16.73;;
12947;SDS011;6539;49.476;8.484;2023-05-09T04:50:29;20.87;;;17.07;;
12947;SDS011;6539;49.476;8.484;2023-05-09T04:52:59;18.27;;;15.53;;
12947;SDS011;6539;49.476;8.484;2023-05-09T04:55:30;21.07;;;17.20;;
12947;SDS011;6539;49.476;8.484;2023-05-09T04:57:56;22.93;;;17.20;;
12947;SDS011;6539;49.476;8.484;2023-05-09T05:00:24;22.00;;;16.90;;
12947;SDS011;6539;49.476;8.484;2023-05-09T05:02:52;20.50;;;16.73;;
12947;SDS011;6539;49.476;8.484;2023-05-09T05:05:18;21.13;;;16.53;;
12947;SDS011;6539;49.476;8.484;2023-05-09T05:07:46;18.70;;;15.57;;
12947;SDS011;6539;49.476;8.484;2023-05-09T05:10:18;19.93;;;16.80;;
12947;SDS011;6539;49.476;8.484;2023-05-09T05:12:44;20.20;;;16.60;;
12947;SDS011;6539;49.476;8.484;2023-05-09T05:15:12;20.87;;;16.53;;
12947;SDS011;6539;49.476;8.484;2023-05-09T05:17:41;16.10;;;14.23;;
12947;SDS011;6539;49.476;8.484;2023-05-09T05:20:07;17.00;;;15.00;;
12947;SDS011;6539;49.476;8.484;2023-05-09T05:22:39;20.67;;;15.53;;
12947;SDS011;6539;49.476;8.484;2023-05-09T05:25:05;17.83;;;15.67;;
12947;SDS011;6539;49.476;8.484;2023-05-09T05:27:31;18.67;;;15.33;;
12947;SDS011;6539;49.476;8.484;2023-05-09T05:29:57;23.17;;;18.23;;
12947;SDS011;6539;49.476;8.484;2023-05-09T05:32:23;20.47;;;17.10;;
12947;SDS011;6539;49.476;8.484;2023-05-09T05:34:49;20.87;;;17.80;;
12947;SDS011;6539;49.476;8.484;2023-05-09T05:37:15;22.30;;;18.33;;
12947;SDS011;6539;49.476;8.484;2023-05-09T05:39:41;20.77;;;16.83;;
12947;SDS011;6539;49.476;8.484;2023-05-09T05:42:07;21.70;;;18.10;;
12947;SDS011;6539;49.476;8.484;2023-05-09T05:44:39;26.43;;;21.10;;
12947;SDS011;6539;49.476;8.484;2023-05-09T05:47:05;25.73;;;19.07;;
12947;SDS011;6539;49.476;8.484;2023-05-09T05:49:33;24.03;;;19.37;;
12947;SDS011;6539;49.476;8.484;2023-05-09T05:52:01;26.47;;;20.47;;
12947;SDS011;6539;49.476;8.484;2023-05-09T05:54:27;24.60;;;19.87;;
12947;SDS011;6539;49.476;8.484;2023-05-09T05:56:53;25.87;;;19.70;;
12947;SDS011;6539;49.476;8.484;2023-05-09T05:59:21;24.47;;;19.50;;
12947;SDS011;6539;49.476;8.484;2023-05-09T06:01:47;27.30;;;20.87;;
12947;SDS011;6539;49.476;8.484;2023-05-09T06:04:15;27.97;;;19.93;;
12947;SDS011;6539;49.476;8.484;2023-05-09T06:06:43;23.67;;;18.67;;
12947;SDS011;6539;49.476;8.484;2023-05-09T06:09:12;30.27;;;19.83;;
12947;SDS011;6539;49.476;8.484;2023-05-09T06:11:42;29.70;;;19.47;;
12947;SDS011;6539;49.476;8.484;2023-05-09T06:14:10;25.33;;;20.30;;
12947;SDS011;6539;49.476;8.484;2023-05-09T06:16:36;27.40;;;20.27;;
12947;SDS011;6539;49.476;8.484;2023-05-09T06:19:04;29.00;;;21.60;;
12947;SDS011;6539;49.476;8.484;2023-05-09T06:21:32;31.03;;;21.60;;
12947;SDS011;6539;49.476;8.484;2023-05-09T06:24:00;30.13;;;20.53;;
12947;SDS011;6539;49.476;8.484;2023-05-09T06:26:29;32.47;;;23.20;;
12947;SDS011;6539;49.476;8.484;2023-05-09T06:28:55;33.40;;;21.97;;
12947;SDS011;6539;49.476;8.484;2023-05-09T06:31:21;36.37;;;22.93;;
12947;SDS011;6539;49.476;8.484;2023-05-09T06:33:47;29.13;;;21.40;;
12947;SDS011;6539;49.476;8.484;2023-05-09T06:36:12;29.23;;;21.07;;
12947;SDS011;6539;49.476;8.484;2023-05-09T06:38:38;30.10;;;20.03;;
12947;SDS011;6539;49.476;8.484;2023-05-09T06:41:04;30.93;;;21.57;;
12947;SDS011;6539;49.476;8.484;2023-05-09T06:43:32;32.57;;;21.47;;
12947;SDS011;6539;49.476;8.484;2023-05-09T06:45:58;33.33;;;22.10;;
12947;SDS011;6539;49.476;8.484;2023-05-09T06:48:24;32.57;;;22.20;;
12947;SDS011;6539;49.476;8.484;2023-05-09T06:50:54;33.73;;;22.23;;
12947;SDS011;6539;49.476;8.484;2023-05-09T06:53:22;33.87;;;21.60;;
12947;SDS011;6539;49.476;8.484;2023-05-09T06:55:48;28.20;;;20.90;;
12947;SDS011;6539;49.476;8.484;2023-05-09T06:58:18;30.83;;;20.97;;
12947;SDS011;6539;49.476;8.484;2023-05-09T07:00:44;33.53;;;20.67;;
12947;SDS011;6539;49.476;8.484;2023-05-09T07:03:13;30.63;;;21.40;;
12947;SDS011;6539;49.476;8.484;2023-05-09T07:05:39;28.97;;;20.43;;
12947;SDS011;6539;49.476;8.484;2023-05-09T07:08:08;28.50;;;19.60;;
12947;SDS011;6539;49.476;8.484;2023-05-09T07:10:38;26.93;;;19.23;;
12947;SDS011;6539;49.476;8.484;2023-05-09T07:13:11;26.73;;;19.73;;
12947;SDS011;6539;49.476;8.484;2023-05-09T07:15:37;28.00;;;19.20;;
12947;SDS011;6539;49.476;8.484;2023-05-09T07:18:08;36.47;;;20.07;;
12947;SDS011;6539;49.476;8.484;2023-05-09T07:20:36;26.43;;;20.23;;
12947;SDS011;6539;49.476;8.484;2023-05-09T07:23:07;26.90;;;20.60;;
12947;SDS011;6539;49.476;8.484;2023-05-09T07:25:35;26.07;;;20.20;;
12947;SDS011;6539;49.476;8.484;2023-05-09T07:28:04;25.80;;;19.43;;
12947;SDS011;6539;49.476;8.484;2023-05-09T07:30:32;26.87;;;18.77;;
12947;SDS011;6539;49.476;8.484;2023-05-09T07:32:58;26.73;;;18.90;;
12947;SDS011;6539;49.476;8.484;2023-05-09T07:35:31;26.67;;;19.60;;
12947;SDS011;6539;49.476;8.484;2023-05-09T07:37:59;27.90;;;20.30;;
12947;SDS011;6539;49.476;8.484;2023-05-09T07:40:27;26.57;;;19.70;;
12947;SDS011;6539;49.476;8.484;2023-05-09T07:42:53;29.37;;;20.60;;
12947;SDS011;6539;49.476;8.484;2023-05-09T07:45:21;28.50;;;20.03;;
12947;SDS011;6539;49.476;8.484;2023-05-09T07:47:46;23.73;;;19.33;;
12947;SDS011;6539;49.476;8.484;2023-05-09T07:50:12;26.43;;;20.50;;
12947;SDS011;6539;49.476;8.484;2023-05-09T07:52:40;28.17;;;20.07;;
12947;SDS011;6539;49.476;8.484;2023-05-09T07:55:09;28.53;;;21.07;;
12947;SDS011;6539;49.476;8.484;2023-05-09T07:57:36;26.90;;;19.90;;
12947;SDS011;6539;49.476;8.484;2023-05-09T08:00:03;26.47;;;18.87;;
12947;SDS011;6539;49.476;8.484;2023-05-09T08:02:41;23.27;;;18.40;;
12947;SDS011;6539;49.476;8.484;2023-05-09T08:05:07;22.27;;;17.93;;
12947;SDS011;6539;49.476;8.484;2023-05-09T08:07:35;25.60;;;18.83;;
12947;SDS011;6539;49.476;8.484;2023-05-09T08:10:01;24.27;;;18.93;;
12947;SDS011;6539;49.476;8.484;2023-05-09T08:12:27;27.17;;;19.53;;
12947;SDS011;6539;49.476;8.484;2023-05-09T08:14:52;27.10;;;20.47;;
12947;SDS011;6539;49.476;8.484;2023-05-09T08:17:20;24.90;;;19.90;;
12947;SDS011;6539;49.476;8.484;2023-05-09T08:19:46;29.60;;;21.37;;
12947;SDS011;6539;49.476;8.484;2023-05-09T08:22:15;28.43;;;22.23;;
12947;SDS011;6539;49.476;8.484;2023-05-09T08:24:44;26.07;;;20.50;;
12947;SDS011;6539;49.476;8.484;2023-05-09T08:27:13;27.17;;;20.70;;
12947;SDS011;6539;49.476;8.484;2023-05-09T08:29:39;31.80;;;22.93;;
12947;SDS011;6539;49.476;8.484;2023-05-09T08:32:06;28.33;;;21.80;;
12947;SDS011;6539;49.476;8.484;2023-05-09T08:34:32;29.97;;;21.80;;
12947;SDS011;6539;49.476;8.484;2023-05-09T08:37:00;28.10;;;21.77;;
12947;SDS011;6539;49.476;8.484;2023-05-09T08:39:32;29.80;;;22.57;;
12947;SDS011;6539;49.476;8.484;2023-05-09T08:42:00;31.67;;;21.80;;
12947;SDS011;6539;49.476;8.484;2023-05-09T08:44:30;29.37;;;21.87;;
12947;SDS011;6539;49.476;8.484;2023-05-09T08:46:59;27.80;;;21.33;;
12947;SDS011;6539;49.476;8.484;2023-05-09T08:49:30;27.43;;;21.30;;
12947;SDS011;6539;49.476;8.484;2023-05-09T08:52:00;27.17;;;21.40;;
12947;SDS011;6539;49.476;8.484;2023-05-09T08:54:26;25.17;;;20.00;;
12947;SDS011;6539;49.476;8.484;2023-05-09T08:56:55;27.73;;;21.03;;
12947;SDS011;6539;49.476;8.484;2023-05-09T08:59:21;26.57;;;19.77;;
12947;SDS011;6539;49.476;8.484;2023-05-09T09:01:48;26.07;;;19.57;;
12947;SDS011;6539;49.476;8.484;2023-05-09T09:04:15;25.90;;;19.40;;
12947;SDS011;6539;49.476;8.484;2023-05-09T09:06:40;24.43;;;19.83;;
12947;SDS011;6539;49.476;8.484;2023-05-09T09:09:07;22.87;;;19.13;;
12947;SDS011;6539;49.476;8.484;2023-05-09T09:11:37;27.00;;;20.87;;
12947;SDS011;6539;49.476;8.484;2023-05-09T09:14:10;29.17;;;20.80;;
12947;SDS011;6539;49.476;8.484;2023-05-09T09:16:40;28.97;;;21.97;;
12947;SDS011;6539;49.476;8.484;2023-05-09T09:19:13;26.77;;;20.23;;
12947;SDS011;6539;49.476;8.484;2023-05-09T09:21:42;24.07;;;20.50;;
12947;SDS011;6539;49.476;8.484;2023-05-09T09:24:19;27.53;;;21.03;;
12947;SDS011;6539;49.476;8.484;2023-05-09T09:26:49;26.97;;;21.40;;
12947;SDS011;6539;49.476;8.484;2023-05-09T09:29:16;25.97;;;20.07;;
12947;SDS011;6539;49.476;8.484;2023-05-09T09:31:45;25.80;;;20.83;;
12947;SDS011;6539;49.476;8.484;2023-05-09T09:34:19;26.50;;;21.00;;
12947;SDS011;6539;49.476;8.484;2023-05-09T09:36:48;26.30;;;20.50;;
12947;SDS011;6539;49.476;8.484;2023-05-09T09:39:16;26.73;;;21.80;;
12947;SDS011;6539;49.476;8.484;2023-05-09T09:41:45;27.53;;;21.03;;
12947;SDS011;6539;49.476;8.484;2023-05-09T09:44:19;24.77;;;19.13;;
12947;SDS011;6539;49.476;8.484;2023-05-09T09:49:16;24.53;;;18.57;;
12947;SDS011;6539;49.476;8.484;2023-05-09T09:51:44;26.20;;;19.40;;
12947;SDS011;6539;49.476;8.484;2023-05-09T09:54:17;22.17;;;18.23;;
12947;SDS011;6539;49.476;8.484;2023-05-09T09:56:44;27.73;;;18.57;;
12947;SDS011;6539;49.476;8.484;2023-05-09T09:59:21;23.50;;;18.10;;
12947;SDS011;6539;49.476;8.484;2023-05-09T10:01:58;23.53;;;17.67;;
12947;SDS011;6539;49.476;8.484;2023-05-09T10:04:26;21.30;;;16.77;;
12947;SDS011;6539;49.476;8.484;2023-05-09T10:07:03;23.70;;;18.37;;
12947;SDS011;6539;49.476;8.484;2023-05-09T10:09:34;22.47;;;17.83;;
12947;SDS011;6539;49.476;8.484;2023-05-09T10:12:05;17.63;;;14.93;;
12947;SDS011;6539;49.476;8.484;2023-05-09T10:14:35;15.47;;;13.73;;
12947;SDS011;6539;49.476;8.484;2023-05-09T10:17:05;18.67;;;15.43;;
12947;SDS011;6539;49.476;8.484;2023-05-09T10:19:35;18.87;;;15.53;;
12947;SDS011;6539;49.476;8.484;2023-05-09T10:22:08;18.83;;;14.47;;
12947;SDS011;6539;49.476;8.484;2023-05-09T10:24:41;17.93;;;13.80;;
12947;SDS011;6539;49.476;8.484;2023-05-09T10:27:47;16.10;;;14.40;;
12947;SDS011;6539;49.476;8.484;2023-05-09T10:32:56;16.83;;;14.77;;
12947;SDS011;6539;49.476;8.484;2023-05-09T10:35:39;18.13;;;15.17;;
12947;SDS011;6539;49.476;8.484;2023-05-09T10:38:09;17.73;;;14.63;;
12947;SDS011;6539;49.476;8.484;2023-05-09T10:40:39;15.50;;;13.77;;
12947;SDS011;6539;49.476;8.484;2023-05-09T10:43:08;15.47;;;13.07;;
12947;SDS011;6539;49.476;8.484;2023-05-09T10:45:33;15.33;;;12.70;;
12947;SDS011;6539;49.476;8.484;2023-05-09T10:48:03;16.73;;;12.83;;
12947;SDS011;6539;49.476;8.484;2023-05-09T10:50:34;13.13;;;11.70;;
12947;SDS011;6539;49.476;8.484;2023-05-09T10:53:06;11.60;;;10.50;;
12947;SDS011;6539;49.476;8.484;2023-05-09T11:00:57;11.63;;;9.93;;
12947;SDS011;6539;49.476;8.484;2023-05-09T11:03:28;11.83;;;9.70;;
12947;SDS011;6539;49.476;8.484;2023-05-09T11:12:10;11.57;;;10.37;;
12947;SDS011;6539;49.476;8.484;2023-05-09T11:14:40;10.43;;;9.43;;
12947;SDS011;6539;49.476;8.484;2023-05-09T11:22:22;10.70;;;9.57;;
12947;SDS011;6539;49.476;8.484;2023-05-09T11:27:41;10.13;;;9.00;;
12947;SDS011;6539;49.476;8.484;2023-05-09T11:30:12;10.97;;;9.00;;
12947;SDS011;6539;49.476;8.484;2023-05-09T11:35:23;10.33;;;8.90;;
12947;SDS011;6539;49.476;8.484;2023-05-09T11:38:02;9.77;;;8.77;;
12947;SDS011;6539;49.476;8.484;2023-05-09T11:40:33;10.47;;;8.90;;
12947;SDS011;6539;49.476;8.484;2023-05-09T11:43:06;9.87;;;7.77;;
12947;SDS011;6539;49.476;8.484;2023-05-09T11:45:34;12.63;;;9.13;;
12947;SDS011;6539;49.476;8.484;2023-05-09T11:48:07;10.73;;;8.87;;
12947;SDS011;6539;49.476;8.484;2023-05-09T11:50:37;9.27;;;8.27;;
12947;SDS011;6539;49.476;8.484;2023-05-09T11:53:09;9.23;;;8.33;;
12947;SDS011;6539;49.476;8.484;2023-05-09T11:55:36;9.00;;;8.10;;
12947;SDS011;6539;49.476;8.484;2023-05-09T11:58:09;8.60;;;7.90;;
12947;SDS011;6539;49.476;8.484;2023-05-09T12:00:42;10.80;;;8.30;;
12947;SDS011;6539;49.476;8.484;2023-05-09T12:03:09;8.80;;;7.90;;
12947;SDS011;6539;49.476;8.484;2023-05-09T12:05:36;9.67;;;7.80;;
12947;SDS011;6539;49.476;8.484;2023-05-09T12:08:05;10.37;;;8.37;;
12947;SDS011;6539;49.476;8.484;2023-05-09T12:10:31;9.77;;;8.70;;
12947;SDS011;6539;49.476;8.484;2023-05-09T12:13:04;10.57;;;9.30;;
12947;SDS011;6539;49.476;8.484;2023-05-09T12:15:35;8.50;;;7.70;;
12947;SDS011;6539;49.476;8.484;2023-05-09T12:18:05;11.53;;;8.57;;
12947;SDS011;6539;49.476;8.484;2023-05-09T12:20:46;8.63;;;7.83;;
12947;SDS011;6539;49.476;8.484;2023-05-09T12:23:18;8.33;;;7.07;;
12947;SDS011;6539;49.476;8.484;2023-05-09T12:25:47;8.63;;;7.30;;
12947;SDS011;6539;49.476;8.484;2023-05-09T12:28:19;8.27;;;7.17;;
12947;SDS011;6539;49.476;8.484;2023-05-09T12:30:50;7.57;;;6.80;;
12947;SDS011;6539;49.476;8.484;2023-05-09T12:33:17;7.63;;;6.83;;
12947;SDS011;6539;49.476;8.484;2023-05-09T12:35:46;7.00;;;6.30;;
12947;SDS011;6539;49.476;8.484;2023-05-09T12:38:37;8.47;;;7.23;;
12947;SDS011;6539;49.476;8.484;2023-05-09T12:41:18;7.33;;;6.63;;
12947;SDS011;6539;49.476;8.484;2023-05-09T12:43:47;8.50;;;7.70;;
12947;SDS011;6539;49.476;8.484;2023-05-09T12:46:18;7.57;;;6.57;;
12947;SDS011;6539;49.476;8.484;2023-05-09T12:48:46;7.37;;;6.63;;
12947;SDS011;6539;49.476;8.484;2023-05-09T12:51:19;6.00;;;5.50;;
12947;SDS011;6539;49.476;8.484;2023-05-09T12:53:46;8.30;;;6.73;;
12947;SDS011;6539;49.476;8.484;2023-05-09T12:56:13;7.93;;;7.13;;
12947;SDS011;6539;49.476;8.484;2023-05-09T12:58:50;9.67;;;6.57;;
12947;SDS011;6539;49.476;8.484;2023-05-09T13:01:25;6.20;;;5.50;;
12947;SDS011;6539;49.476;8.484;2023-05-09T13:04:01;7.13;;;6.43;;
12947;SDS011;6539;49.476;8.484;2023-05-09T13:06:33;7.37;;;6.13;;
12947;SDS011;6539;49.476;8.484;2023-05-09T13:09:11;6.90;;;6.20;;
12947;SDS011;6539;49.476;8.484;2023-05-09T13:11:38;7.67;;;6.67;;
12947;SDS011;6539;49.476;8.484;2023-05-09T13:14:06;10.07;;;7.53;;
12947;SDS011;6539;49.476;8.484;2023-05-09T13:16:35;8.70;;;7.27;;
12947;SDS011;6539;49.476;8.484;2023-05-09T13:19:03;7.13;;;6.43;;
12947;SDS011;6539;49.476;8.484;2023-05-09T13:21:32;8.77;;;6.77;;
12947;SDS011;6539;49.476;8.484;2023-05-09T13:23:58;8.73;;;7.47;;
12947;SDS011;6539;49.476;8.484;2023-05-09T13:26:24;8.23;;;7.30;;
12947;SDS011;6539;49.476;8.484;2023-05-09T13:28:55;7.03;;;6.33;;
12947;SDS011;6539;49.476;8.484;2023-05-09T13:31:29;9.37;;;7.10;;
12947;SDS011;6539;49.476;8.484;2023-05-09T13:33:57;8.80;;;8.00;;
12947;SDS011;6539;49.476;8.484;2023-05-09T13:36:23;8.77;;;7.17;;
12947;SDS011;6539;49.476;8.484;2023-05-09T13:38:48;8.63;;;7.83;;
12947;SDS011;6539;49.476;8.484;2023-05-09T13:41:20;9.37;;;8.43;;
12947;SDS011;6539;49.476;8.484;2023-05-09T13:43:47;8.13;;;7.33;;
12947;SDS011;6539;49.476;8.484;2023-05-09T13:46:18;9.20;;;7.80;;
12947;SDS011;6539;49.476;8.484;2023-05-09T13:48:43;8.43;;;7.63;;
12947;SDS011;6539;49.476;8.484;2023-05-09T13:51:11;11.40;;;8.13;;
12947;SDS011;6539;49.476;8.484;2023-05-09T13:53:37;8.60;;;7.77;;
12947;SDS011;6539;49.476;8.484;2023-05-09T13:56:06;9.50;;;8.50;;
12947;SDS011;6539;49.476;8.484;2023-05-09T13:58:33;10.33;;;8.67;;
12947;SDS011;6539;49.476;8.484;2023-05-09T14:00:59;9.53;;;7.90;;
12947;SDS011;6539;49.476;8.484;2023-05-09T14:03:25;8.67;;;7.83;;
12947;SDS011;6539;49.476;8.484;2023-05-09T14:05:51;10.13;;;8.40;;
12947;SDS011;6539;49.476;8.484;2023-05-09T14:08:17;10.00;;;8.87;;
12947;SDS011;6539;49.476;8.484;2023-05-09T14:10:45;10.80;;;8.30;;
12947;SDS011;6539;49.476;8.484;2023-05-09T14:13:12;9.33;;;8.00;;
12947;SDS011;6539;49.476;8.484;2023-05-09T14:15:40;11.40;;;8.80;;
12947;SDS011;6539;49.476;8.484;2023-05-09T14:18:05;8.20;;;7.40;;
12947;SDS011;6539;49.476;8.484;2023-05-09T14:20:31;9.40;;;8.13;;
12947;SDS011;6539;49.476;8.484;2023-05-09T14:23:02;10.37;;;9.17;;
12947;SDS011;6539;49.476;8.484;2023-05-09T14:25:27;9.70;;;8.73;;
12947;SDS011;6539;49.476;8.484;2023-05-09T14:27:53;9.23;;;7.73;;
12947;SDS011;6539;49.476;8.484;2023-05-09T14:30:19;10.57;;;8.90;;
12947;SDS011;6539;49.476;8.484;2023-05-09T14:32:45;10.13;;;9.00;;
12947;SDS011;6539;49.476;8.484;2023-05-09T14:35:12;10.20;;;9.20;;
12947;SDS011;6539;49.476;8.484;2023-05-09T14:37:37;9.83;;;8.83;;
12947;SDS011;6539;49.476;8.484;2023-05-09T14:40:06;10.73;;;9.20;;
12947;SDS011;6539;49.476;8.484;2023-05-09T14:42:37;11.00;;;9.53;;
12947;SDS011;6539;49.476;8.484;2023-05-09T14:45:06;9.93;;;9.03;;
12947;SDS011;6539;49.476;8.484;2023-05-09T14:47:35;13.07;;;8.77;;
12947;SDS011;6539;49.476;8.484;2023-05-09T14:50:04;8.63;;;7.67;;
12947;SDS011;6539;49.476;8.484;2023-05-09T14:52:33;9.33;;;8.23;;
12947;SDS011;6539;49.476;8.484;2023-05-09T14:54:59;6.90;;;6.30;;
12947;SDS011;6539;49.476;8.484;2023-05-09T14:57:30;9.67;;;8.37;;
12947;SDS011;6539;49.476;8.484;2023-05-09T14:59:56;7.97;;;7.17;;
12947;SDS011;6539;49.476;8.484;2023-05-09T15:02:22;7.37;;;6.67;;
12947;SDS011;6539;49.476;8.484;2023-05-09T15:04:48;7.80;;;6.77;;
12947;SDS011;6539;49.476;8.484;2023-05-09T15:07:14;6.93;;;6.23;;
12947;SDS011;6539;49.476;8.484;2023-05-09T15:09:42;7.63;;;6.93;;
12947;SDS011;6539;49.476;8.484;2023-05-09T15:12:08;7.57;;;6.87;;
12947;SDS011;6539;49.476;8.484;2023-05-09T15:14:34;7.27;;;6.10;;
12947;SDS011;6539;49.476;8.484;2023-05-09T15:17:01;5.77;;;5.27;;
12947;SDS011;6539;49.476;8.484;2023-05-09T15:19:28;6.03;;;5.37;;
12947;SDS011;6539;49.476;8.484;2023-05-09T15:21:58;7.20;;;6.13;;
12947;SDS011;6539;49.476;8.484;2023-05-09T15:24:24;5.47;;;4.97;;
12947;SDS011;6539;49.476;8.484;2023-05-09T15:26:51;6.40;;;5.80;;
12947;SDS011;6539;49.476;8.484;2023-05-09T15:29:18;9.27;;;5.87;;